Time;durP1;ratioP1;P1;durP2;ratioP2;P2;SDS_P1;SDS_P2;PMS_P1;PMS_P2;Temp;Humidity;BMP_temperature;BMP_pressure;BME280_temperature;BME280_humidity;BME280_pressure;Samples;Min_cycle;Max_cycle;Signal;HPM_P1;HPM_P2
2022/12/13 00:00:17;;;;;;;34.53;15.95;;;-2.80;99.90;;;;;;5071624;28;20124;-61
2022/12/13 00:02:43;;;;;;;29.90;15.07;;;-2.80;99.90;;;;;;5071225;28;20036;-60
2022/12/13 00:05:11;;;;;;;28.48;15.15;;;-2.80;99.90;;;;;;5071320;28;20040;-62
2022/12/13 00:07:37;;;;;;;29.88;15.07;;;-2.70;99.90;;;;;;5071520;28;20040;-62
2022/12/13 00:10:04;;;;;;;32.72;14.88;;;-2.80;99.90;;;;;;5071234;28;20041;-60
2022/12/13 00:12:30;;;;;;;29.58;15.57;;;-2.80;99.90;;;;;;5070758;28;20040;-60
2022/12/13 00:14:55;;;;;;;32.22;15.68;;;-2.80;99.90;;;;;;5071126;28;20086;-60
2022/12/13 00:17:21;;;;;;;28.85;14.43;;;-2.80;99.90;;;;;;5070909;28;20041;-61
2022/12/13 00:19:47;;;;;;;27.38;14.80;;;-2.90;99.90;;;;;;5071163;28;20405;-61
2022/12/13 00:22:13;;;;;;;28.10;14.43;;;-2.90;99.90;;;;;;5071127;28;20044;-60
2022/12/13 00:24:39;;;;;;;32.03;15.20;;;-2.90;99.90;;;;;;5071397;28;20047;-61
2022/12/13 00:27:04;;;;;;;31.17;16.25;;;-3.00;99.90;;;;;;5070846;28;20134;-62
2022/12/13 00:29:31;;;;;;;32.65;16.10;;;-3.00;99.90;;;;;;5053409;28;20457;-61
2022/12/13 00:31:56;;;;;;;30.77;15.25;;;-3.10;99.90;;;;;;5052622;28;20514;-62
2022/12/13 00:34:22;;;;;;;31.15;15.00;;;-3.10;99.90;;;;;;5071235;28;20052;-63
2022/12/13 00:36:48;;;;;;;30.17;14.82;;;-3.10;99.90;;;;;;5071153;28;20037;-58
2022/12/13 00:39:15;;;;;;;30.85;16.13;;;-3.20;99.90;;;;;;5070956;28;20033;-61
2022/12/13 00:41:42;;;;;;;27.38;14.13;;;-3.20;99.90;;;;;;5070810;28;20044;-62
2022/12/13 00:44:10;;;;;;;32.58;15.77;;;-3.20;99.90;;;;;;5053290;28;20051;-61
2022/12/13 00:46:37;;;;;;;39.10;17.35;;;-3.20;99.90;;;;;;5053324;28;20040;-63
2022/12/13 00:49:04;;;;;;;31.67;15.65;;;-3.20;99.90;;;;;;5070937;28;20139;-62
2022/12/13 00:51:31;;;;;;;32.33;17.15;;;-3.10;99.90;;;;;;5071138;28;20033;-60
2022/12/13 00:53:58;;;;;;;32.83;14.90;;;-3.10;99.90;;;;;;5070728;28;20548;-61
2022/12/13 00:56:26;;;;;;;33.53;16.38;;;-3.20;99.90;;;;;;5070794;28;20139;-61
2022/12/13 00:58:52;;;;;;;30.80;14.52;;;-3.20;99.90;;;;;;5073081;28;20032;-61
2022/12/13 01:01:21;;;;;;;32.92;14.60;;;-3.20;99.90;;;;;;5056710;28;20187;-62
2022/12/13 01:03:46;;;;;;;31.55;15.27;;;-3.20;99.90;;;;;;5073770;28;20084;-61
2022/12/13 01:06:16;;;;;;;32.85;14.23;;;-3.20;99.90;;;;;;5074631;28;20171;-61
2022/12/13 01:08:42;;;;;;;32.92;15.45;;;-3.20;99.90;;;;;;5073771;28;20174;-61
2022/12/13 01:11:10;;;;;;;33.33;16.02;;;-3.30;99.90;;;;;;5074237;28;20044;-63
2022/12/13 01:13:37;;;;;;;30.77;15.80;;;-3.40;99.90;;;;;;5073720;28;20060;-61
2022/12/13 01:16:06;;;;;;;30.90;15.38;;;-3.40;99.90;;;;;;5074336;28;20129;-64
2022/12/13 01:18:32;;;;;;;33.40;15.82;;;-3.40;99.90;;;;;;5073557;28;20036;-61
2022/12/13 01:21:03;;;;;;;31.15;14.25;;;-3.40;99.90;;;;;;5074137;28;20121;-61
2022/12/13 01:23:29;;;;;;;26.70;13.30;;;-3.30;99.90;;;;;;5074001;28;20079;-63
2022/12/13 01:25:55;;;;;;;29.50;15.02;;;-3.40;99.90;;;;;;5073803;28;20098;-59
2022/12/13 01:28:22;;;;;;;30.85;13.82;;;-3.40;99.90;;;;;;5073888;28;20094;-61
2022/12/13 01:30:55;;;;;;;26.58;13.65;;;-3.40;99.90;;;;;;5074023;28;20072;-61
2022/12/13 01:33:21;;;;;;;26.50;13.38;;;-3.50;99.90;;;;;;5073385;28;20047;-61
2022/12/13 01:35:47;;;;;;;28.23;13.57;;;-3.40;99.90;;;;;;5074005;28;20032;-61
2022/12/13 01:38:12;;;;;;;27.73;13.80;;;-3.40;99.90;;;;;;5056170;28;20048;-61
2022/12/13 01:40:46;;;;;;;29.67;13.35;;;-3.40;99.90;;;;;;5073627;28;20443;-64
2022/12/13 01:43:13;;;;;;;30.40;13.60;;;-3.40;99.90;;;;;;5073476;28;20036;-60
2022/12/13 01:45:38;;;;;;;27.33;13.13;;;-3.50;99.90;;;;;;5073508;28;20040;-63
2022/12/13 01:48:09;;;;;;;27.90;13.52;;;-3.50;99.90;;;;;;5073641;28;20453;-63
2022/12/13 01:50:39;;;;;;;23.27;12.55;;;-3.60;99.90;;;;;;5073560;28;20422;-63
2022/12/13 01:53:08;;;;;;;26.02;12.70;;;-3.60;99.90;;;;;;5073020;28;20129;-64
2022/12/13 01:55:37;;;;;;;30.85;14.57;;;-3.70;99.90;;;;;;5073615;28;20044;-62
2022/12/13 01:58:04;;;;;;;31.05;14.93;;;-3.80;99.90;;;;;;5073773;28;20032;-65
2022/12/13 02:00:33;;;;;;;27.23;13.23;;;-3.70;99.90;;;;;;5073565;28;20037;-63
2022/12/13 02:03:00;;;;;;;27.35;14.55;;;-3.80;99.90;;;;;;5072772;28;20045;-63
2022/12/13 02:05:46;;;;;;;26.17;13.73;;;-3.80;99.90;;;;;;5073023;28;20086;-63
2022/12/13 02:08:14;;;;;;;28.38;14.20;;;-3.80;99.90;;;;;;5073120;28;20037;-61
2022/12/13 02:10:41;;;;;;;25.55;12.77;;;-3.80;99.90;;;;;;5054989;28;20497;-62
2022/12/13 02:13:07;;;;;;;29.13;13.10;;;-3.90;99.90;;;;;;5072910;28;20055;-64
2022/12/13 02:16:02;;;;;;;27.92;13.50;;;-3.80;99.90;;;;;;5073336;28;20024;-61
2022/12/13 02:18:45;;;;;;;26.55;12.65;;;-3.80;99.90;;;;;;5072908;28;20123;-59
2022/12/13 02:21:20;;;;;;;29.52;13.48;;;-3.70;99.90;;;;;;5061048;28;20044;-61
2022/12/13 02:24:09;;;;;;;25.35;12.48;;;-3.70;99.90;;;;;;5072782;28;20508;-63
2022/12/13 02:26:38;;;;;;;39.42;14.00;;;-3.70;99.90;;;;;;5072778;28;20131;-61
2022/12/13 02:29:22;;;;;;;28.95;13.35;;;-3.70;99.90;;;;;;5054773;28;20052;-61
2022/12/13 02:32:21;;;;;;;34.15;14.20;;;-3.70;99.90;;;;;;5072528;28;20048;-59
2022/12/13 02:35:02;;;;;;;26.90;12.77;;;-3.70;99.90;;;;;;5054829;28;20376;-61
2022/12/13 02:38:07;;;;;;;28.02;13.55;;;-3.90;99.90;;;;;;5072730;28;20055;-61
2022/12/13 02:40:45;;;;;;;26.67;13.32;;;-4.00;99.90;;;;;;5072754;28;20044;-63
2022/12/13 02:43:31;;;;;;;30.35;14.00;;;-4.00;99.90;;;;;;5059217;28;20090;-60
2022/12/13 02:45:59;;;;;;;31.73;13.55;;;-4.00;99.90;;;;;;5072482;28;20048;-62
2022/12/13 02:48:28;;;;;;;31.75;14.55;;;-4.00;99.90;;;;;;5072351;28;20119;-62
2022/12/13 02:50:55;;;;;;;30.33;14.30;;;-3.90;99.90;;;;;;5072061;28;20390;-61
2022/12/13 02:53:22;;;;;;;30.50;15.38;;;-3.90;99.90;;;;;;5071972;28;20032;-61
2022/12/13 02:55:48;;;;;;;29.63;13.52;;;-3.90;99.90;;;;;;5072188;28;20399;-62
2022/12/13 02:58:24;;;;;;;30.50;14.65;;;-4.00;99.90;;;;;;5072016;28;20033;-61
2022/12/13 03:01:12;;;;;;;27.40;13.30;;;-4.00;99.90;;;;;;5072141;28;20048;-59
2022/12/13 03:03:54;;;;;;;34.35;15.52;;;-4.00;99.90;;;;;;5069605;28;20041;-63
2022/12/13 03:07:01;;;;;;;31.20;13.52;;;-4.10;99.90;;;;;;5071815;28;20048;-60
2022/12/13 03:09:47;;;;;;;28.95;15.18;;;-4.00;99.90;;;;;;5060751;28;20847;-61
2022/12/13 03:15:28;;;;;;;30.55;13.32;;;-4.10;99.90;;;;;;5072124;28;20040;-61
2022/12/13 03:18:14;;;;;;;31.85;15.73;;;-4.00;99.90;;;;;;5060798;28;20048;-62
2022/12/13 03:21:04;;;;;;;32.47;14.40;;;-4.00;99.90;;;;;;5070997;28;20040;-63
2022/12/13 03:23:30;;;;;;;30.17;14.07;;;-4.00;99.90;;;;;;5070996;28;20575;-61
2022/12/13 03:26:01;;;;;;;26.05;13.20;;;-3.90;99.90;;;;;;5071567;28;20480;-59
2022/12/13 03:28:27;;;;;;;29.25;13.93;;;-3.90;99.90;;;;;;5053764;28;20362;-62
2022/12/13 03:30:53;;;;;;;27.42;14.60;;;-3.80;99.90;;;;;;5070986;28;20043;-61
2022/12/13 03:33:18;;;;;;;28.08;13.75;;;-3.40;99.90;;;;;;5053012;28;20040;-62
2022/12/13 03:35:44;;;;;;;29.20;13.85;;;-3.80;99.90;;;;;;5053890;28;20032;-61
2022/12/13 03:38:15;;;;;;;27.45;13.48;;;-3.80;99.90;;;;;;5071530;28;20060;-62
2022/12/13 03:40:40;;;;;;;26.20;13.68;;;-3.70;99.90;;;;;;5071205;28;20119;-62
2022/12/13 03:43:06;;;;;;;29.67;14.52;;;-3.70;99.90;;;;;;5071435;28;20140;-59
2022/12/13 03:45:32;;;;;;;29.13;13.35;;;-3.70;99.90;;;;;;5071785;28;20032;-59
2022/12/13 03:47:57;;;;;;;28.42;12.75;;;-3.70;99.90;;;;;;5071279;28;20448;-58
2022/12/13 03:50:23;;;;;;;26.00;13.82;;;-3.70;99.90;;;;;;5071477;28;20044;-62
2022/12/13 03:52:50;;;;;;;27.40;12.65;;;-3.80;99.90;;;;;;5071047;28;20040;-62
2022/12/13 03:55:16;;;;;;;26.48;12.90;;;-3.80;99.90;;;;;;5071523;28;20080;-62
2022/12/13 03:57:42;;;;;;;23.27;12.63;;;-3.80;99.90;;;;;;5071456;28;20431;-61
2022/12/13 04:00:08;;;;;;;33.35;13.35;;;-3.80;99.90;;;;;;5071361;28;20475;-60
2022/12/13 04:02:34;;;;;;;24.55;11.90;;;-3.80;99.90;;;;;;5052846;28;20122;-63
2022/12/13 04:04:59;;;;;;;22.23;11.77;;;-3.80;99.90;;;;;;5071521;28;20161;-63
2022/12/13 04:07:25;;;;;;;33.78;13.68;;;-3.80;99.90;;;;;;5071432;28;20040;-63
2022/12/13 04:09:50;;;;;;;28.08;13.10;;;-3.80;99.90;;;;;;5071331;28;20317;-62
2022/12/13 04:15:01;;;;;;;26.65;14.02;;;-3.90;99.90;;;;;;5071485;28;20114;-62
2022/12/13 04:17:26;;;;;;;29.15;13.70;;;-4.00;99.90;;;;;;5070733;28;20032;-62
2022/12/13 04:19:52;;;;;;;25.45;14.05;;;-4.10;99.90;;;;;;5071164;28;20132;-62
2022/12/13 04:22:17;;;;;;;27.15;13.20;;;-4.10;99.90;;;;;;5071065;28;20115;-62
2022/12/13 04:24:43;;;;;;;28.50;13.75;;;-4.20;99.90;;;;;;5071230;28;20040;-61
2022/12/13 04:27:08;;;;;;;22.33;12.57;;;-4.20;99.90;;;;;;5053250;28;20068;-59
2022/12/13 04:29:34;;;;;;;26.00;12.93;;;-4.20;99.90;;;;;;5071229;28;20819;-61
2022/12/13 04:31:59;;;;;;;27.25;14.52;;;-4.20;99.90;;;;;;5072072;28;20380;-61
2022/12/13 04:34:25;;;;;;;26.95;13.73;;;-4.30;99.90;;;;;;5074796;28;20089;-62
2022/12/13 04:36:51;;;;;;;26.58;13.57;;;-4.30;99.90;;;;;;5057194;28;20036;-63
2022/12/13 04:39:16;;;;;;;26.88;14.23;;;-4.30;99.90;;;;;;5073508;28;20054;-61
2022/12/13 04:41:42;;;;;;;29.73;14.57;;;-4.20;99.90;;;;;;5075157;28;20040;-61
2022/12/13 04:44:09;;;;;;;28.50;14.15;;;-4.30;99.90;;;;;;5056778;28;20048;-62
2022/12/13 04:46:35;;;;;;;29.50;14.50;;;-4.30;99.90;;;;;;5074680;28;20149;-59
2022/12/13 04:49:01;;;;;;;29.70;14.68;;;-4.40;99.90;;;;;;5056984;28;20127;-61
2022/12/13 04:51:26;;;;;;;27.33;12.77;;;-4.40;99.90;;;;;;5056575;28;20033;-61
2022/12/13 04:53:52;;;;;;;29.65;12.60;;;-4.40;99.90;;;;;;5074522;28;20090;-60
2022/12/13 04:56:18;;;;;;;24.10;13.30;;;-4.40;99.90;;;;;;5074387;28;20325;-61
2022/12/13 04:58:44;;;;;;;29.75;14.25;;;-4.50;99.90;;;;;;5074347;28;20044;-62
2022/12/13 05:01:10;;;;;;;28.88;13.68;;;-4.50;99.90;;;;;;5056608;28;20376;-64
2022/12/13 05:03:36;;;;;;;24.25;12.80;;;-4.50;99.90;;;;;;5072919;28;20048;-61
2022/12/13 05:06:06;;;;;;;26.48;13.07;;;-4.50;99.90;;;;;;5074327;28;20103;-60
2022/12/13 05:08:32;;;;;;;25.95;13.27;;;-4.50;99.90;;;;;;5074518;28;20044;-61
2022/12/13 05:10:57;;;;;;;24.67;12.93;;;-4.60;99.90;;;;;;5074030;28;20048;-60
2022/12/13 05:13:23;;;;;;;29.42;15.23;;;-4.60;99.90;;;;;;5039212;28;20048;-60
2022/12/13 05:16:02;;;;;;;22.48;12.43;;;-4.60;99.90;;;;;;5073930;28;20037;-61
2022/12/13 05:18:28;;;;;;;25.65;13.45;;;-4.60;99.90;;;;;;5073791;28;20053;-62
2022/12/13 05:20:54;;;;;;;29.92;13.40;;;-4.60;99.90;;;;;;5074140;28;20112;-62
2022/12/13 05:23:22;;;;;;;32.55;15.32;;;-4.70;99.90;;;;;;5073705;28;20461;-60
2022/12/13 05:25:47;;;;;;;26.52;13.60;;;-4.60;99.90;;;;;;5073793;28;20056;-61
2022/12/13 05:28:13;;;;;;;29.05;13.27;;;-4.60;99.90;;;;;;5074507;28;20100;-61
2022/12/13 05:30:39;;;;;;;27.65;14.85;;;-4.60;99.90;;;;;;5073763;28;20120;-61
2022/12/13 05:33:05;;;;;;;30.08;14.45;;;-4.60;99.90;;;;;;5073592;28;20036;-62
2022/12/13 05:35:31;;;;;;;29.48;15.13;;;-4.60;99.90;;;;;;5073959;28;20033;-61
2022/12/13 05:37:56;;;;;;;29.45;14.70;;;-4.60;99.90;;;;;;5074262;28;20174;-60
2022/12/13 05:40:24;;;;;;;31.67;14.27;;;-4.60;99.90;;;;;;5058447;28;20141;-59
2022/12/13 05:42:49;;;;;;;28.83;13.55;;;-4.60;99.90;;;;;;5075047;28;20029;-61
2022/12/13 05:45:16;;;;;;;30.55;14.40;;;-4.40;99.90;;;;;;5080067;28;20496;-60
2022/12/13 05:47:42;;;;;;;29.45;13.75;;;-4.60;99.90;;;;;;5077454;28;20550;-62
2022/12/13 05:50:09;;;;;;;33.65;13.77;;;-4.70;99.90;;;;;;5074567;28;20044;-62
2022/12/13 05:52:35;;;;;;;32.00;14.82;;;-4.70;99.90;;;;;;5086765;28;20040;-62
2022/12/13 05:55:01;;;;;;;32.15;14.68;;;-4.50;99.90;;;;;;5085532;28;20115;-63
2022/12/13 05:57:27;;;;;;;28.77;13.70;;;-4.80;99.90;;;;;;5087780;28;20337;-61
2022/12/13 05:59:52;;;;;;;27.10;12.75;;;-4.70;99.90;;;;;;5071054;28;20664;-61
2022/12/13 06:02:18;;;;;;;29.35;13.75;;;-4.80;99.90;;;;;;5087686;28;20036;-62
2022/12/13 06:04:43;;;;;;;31.65;14.13;;;-4.80;99.90;;;;;;5091722;28;20118;-62
2022/12/13 06:07:10;;;;;;;30.40;13.13;;;-4.70;99.90;;;;;;5075159;28;20112;-61
2022/12/13 06:09:35;;;;;;;28.30;14.15;;;-4.70;99.90;;;;;;5073306;28;20322;-62
2022/12/13 06:12:01;;;;;;;29.80;14.15;;;-4.70;99.90;;;;;;5080661;28;20093;-61
2022/12/13 06:14:27;;;;;;;26.75;13.98;;;-4.70;99.90;;;;;;5088282;28;20329;-62
2022/12/13 06:16:55;;;;;;;29.23;14.18;;;-4.70;99.90;;;;;;5090008;28;20777;-64
2022/12/13 06:19:21;;;;;;;29.40;13.55;;;-4.60;99.90;;;;;;5084155;28;20075;-61
2022/12/13 06:21:48;;;;;;;28.58;14.35;;;-4.60;99.90;;;;;;5075682;28;20041;-62
2022/12/13 06:24:18;;;;;;;26.50;14.07;;;-4.60;99.90;;;;;;5085956;28;20094;-63
2022/12/13 06:26:44;;;;;;;29.63;13.82;;;-4.60;99.90;;;;;;5072783;28;20551;-63
2022/12/13 06:29:10;;;;;;;33.10;14.77;;;-4.60;99.90;;;;;;5073297;28;20079;-62
2022/12/13 06:31:35;;;;;;;30.13;14.13;;;-4.60;99.90;;;;;;5072708;28;20060;-64
2022/12/13 06:34:04;;;;;;;27.55;14.18;;;-4.70;99.90;;;;;;5074063;28;20040;-63
2022/12/13 06:36:30;;;;;;;26.85;13.50;;;-4.60;99.90;;;;;;5072135;28;20033;-63
2022/12/13 06:38:55;;;;;;;27.55;14.32;;;-4.60;99.90;;;;;;5071980;28;20032;-63
2022/12/13 06:41:21;;;;;;;29.75;13.88;;;-4.70;99.90;;;;;;5071488;28;20148;-63
2022/12/13 06:43:47;;;;;;;28.48;14.10;;;-4.70;99.90;;;;;;5071763;28;20409;-63
2022/12/13 06:46:14;;;;;;;27.42;13.35;;;-4.70;99.90;;;;;;5071799;28;20040;-62
2022/12/13 06:48:40;;;;;;;29.63;14.45;;;-4.70;99.90;;;;;;5071075;28;20045;-63
2022/12/13 06:51:07;;;;;;;29.95;14.93;;;-4.70;99.90;;;;;;5071870;28;20352;-62
2022/12/13 06:53:36;;;;;;;29.20;15.35;;;-4.70;99.90;;;;;;5071454;28;20044;-64
2022/12/13 06:56:06;;;;;;;28.25;13.63;;;-4.70;99.90;;;;;;5071350;28;20040;-62
2022/12/13 06:58:33;;;;;;;28.98;14.93;;;-4.70;99.90;;;;;;5072459;28;20055;-62
2022/12/13 07:01:16;;;;;;;30.30;14.35;;;-4.70;99.90;;;;;;5071741;28;20170;-64
2022/12/13 07:03:42;;;;;;;32.53;15.65;;;-4.70;99.90;;;;;;5070031;28;20055;-61
2022/12/13 07:06:17;;;;;;;29.77;14.18;;;-4.70;99.90;;;;;;5054597;28;20048;-63
2022/12/13 07:08:46;;;;;;;28.27;13.85;;;-4.70;99.90;;;;;;5072634;28;20085;-63
2022/12/13 07:11:14;;;;;;;28.45;15.13;;;-4.80;99.90;;;;;;5072171;28;20040;-61
2022/12/13 07:13:40;;;;;;;31.58;14.93;;;-4.80;99.90;;;;;;5071826;28;20040;-62
2022/12/13 07:16:07;;;;;;;31.30;15.02;;;-4.80;99.90;;;;;;5072228;28;20055;-62
2022/12/13 07:18:32;;;;;;;28.58;13.90;;;-4.80;99.90;;;;;;5072547;28;20090;-65
2022/12/13 07:21:05;;;;;;;34.55;14.75;;;-4.80;99.90;;;;;;5071507;28;20036;-62
2022/12/13 07:23:31;;;;;;;31.23;14.52;;;-4.80;99.90;;;;;;5072463;28;20128;-64
2022/12/13 07:25:56;;;;;;;36.92;15.88;;;-4.80;99.90;;;;;;5071616;28;20131;-62
2022/12/13 07:28:22;;;;;;;30.90;15.52;;;-4.80;99.90;;;;;;5053988;28;20052;-62
2022/12/13 07:30:48;;;;;;;35.92;14.18;;;-4.80;99.90;;;;;;5071632;28;20482;-62
2022/12/13 07:33:14;;;;;;;31.58;15.25;;;-4.70;99.90;;;;;;5071306;28;20040;-62
2022/12/13 07:35:40;;;;;;;38.75;17.23;;;-4.80;99.90;;;;;;5071867;28;20037;-62
2022/12/13 07:38:07;;;;;;;34.80;16.88;;;-4.80;99.90;;;;;;5071999;28;20028;-62
2022/12/13 07:40:34;;;;;;;31.33;15.05;;;-4.70;99.90;;;;;;5071862;28;20037;-65
2022/12/13 07:43:00;;;;;;;32.35;14.93;;;-4.80;99.90;;;;;;5071854;28;20068;-62
2022/12/13 07:45:31;;;;;;;28.52;15.48;;;-4.80;99.90;;;;;;5072051;28;20120;-62
2022/12/13 07:48:02;;;;;;;32.78;14.52;;;-4.80;99.90;;;;;;5053797;28;20050;-64
2022/12/13 07:50:27;;;;;;;32.50;15.13;;;-4.80;99.90;;;;;;5072055;28;20055;-63
2022/12/13 07:52:53;;;;;;;31.40;14.75;;;-4.80;99.90;;;;;;5071391;28;20041;-61
2022/12/13 07:55:20;;;;;;;38.10;15.90;;;-4.70;99.90;;;;;;5071849;28;20142;-63
2022/12/13 07:57:46;;;;;;;38.78;15.10;;;-4.60;99.90;;;;;;5071971;28;20037;-62
2022/12/13 08:00:12;;;;;;;35.17;18.00;;;-4.70;99.90;;;;;;5071844;28;20036;-62
2022/12/13 08:02:39;;;;;;;33.53;15.85;;;-4.80;99.90;;;;;;5071224;28;20534;-64
2022/12/13 08:05:05;;;;;;;28.67;14.40;;;-4.80;99.90;;;;;;5053869;28;20036;-63
2022/12/13 08:07:31;;;;;;;33.83;15.45;;;-4.70;99.90;;;;;;5074264;28;20032;-62
2022/12/13 08:09:56;;;;;;;33.80;16.88;;;-4.80;99.90;;;;;;5075788;28;20147;-62
2022/12/13 08:12:22;;;;;;;38.47;19.40;;;-4.80;99.90;;;;;;5075238;28;20045;-64
2022/12/13 08:14:48;;;;;;;33.08;16.63;;;-4.70;99.90;;;;;;5075924;28;20049;-63
2022/12/13 08:17:13;;;;;;;38.53;17.40;;;-4.70;99.90;;;;;;5075283;28;20116;-62
2022/12/13 08:19:39;;;;;;;38.72;17.17;;;-4.70;99.90;;;;;;5075593;28;20440;-63
2022/12/13 08:22:05;;;;;;;38.50;18.00;;;-4.70;99.90;;;;;;5075258;28;20062;-62
2022/12/13 08:24:31;;;;;;;43.80;18.92;;;-4.60;99.90;;;;;;5058768;28;20032;-61
2022/12/13 08:27:01;;;;;;;38.42;17.73;;;-4.60;99.90;;;;;;5075357;28;20105;-61
2022/12/13 08:29:29;;;;;;;44.42;17.55;;;-4.50;99.90;;;;;;5075223;28;20051;-60
2022/12/13 08:31:54;;;;;;;37.22;18.80;;;-4.40;99.90;;;;;;5057645;28;20036;-63
2022/12/13 08:34:20;;;;;;;35.30;16.70;;;-4.40;99.90;;;;;;5075101;28;20109;-63
2022/12/13 08:36:48;;;;;;;39.78;16.52;;;-4.30;99.90;;;;;;5075444;28;20049;-62
2022/12/13 08:39:14;;;;;;;33.58;16.95;;;-4.20;99.90;;;;;;5057759;28;20036;-63
2022/12/13 08:41:40;;;;;;;34.75;17.13;;;-4.10;99.90;;;;;;5075535;28;20397;-63
2022/12/13 08:44:06;;;;;;;36.55;16.33;;;-4.10;99.90;;;;;;5075163;28;20056;-64
2022/12/13 08:46:32;;;;;;;35.13;17.65;;;-4.00;99.90;;;;;;5075204;28;20083;-62
2022/12/13 08:48:58;;;;;;;39.47;17.65;;;-3.90;99.90;;;;;;5074899;28;20468;-61
2022/12/13 08:51:24;;;;;;;35.25;17.65;;;-4.00;99.90;;;;;;5074720;28;20071;-63
2022/12/13 08:53:52;;;;;;;42.72;20.38;;;-3.90;99.90;;;;;;5074654;28;20376;-63
2022/12/13 08:56:17;;;;;;;43.45;19.77;;;-3.90;99.90;;;;;;5056968;28;20048;-61
2022/12/13 08:58:47;;;;;;;36.38;18.70;;;-3.80;99.90;;;;;;5056995;28;20036;-61
2022/12/13 09:01:13;;;;;;;38.38;19.48;;;-3.80;99.90;;;;;;5074041;28;20071;-61
2022/12/13 09:03:38;;;;;;;37.67;18.80;;;-3.80;99.90;;;;;;5075028;28;20083;-62
2022/12/13 09:06:09;;;;;;;44.22;20.30;;;-3.70;99.90;;;;;;5074843;28;20075;-63
2022/12/13 09:08:35;;;;;;;37.53;20.17;;;-3.70;99.90;;;;;;5074529;28;20047;-63
2022/12/13 09:11:02;;;;;;;42.78;20.92;;;-3.70;99.90;;;;;;5073864;28;20111;-63
2022/12/13 09:13:31;;;;;;;40.30;19.50;;;-3.70;99.90;;;;;;5074440;28;20087;-64
2022/12/13 09:15:57;;;;;;;44.10;20.25;;;-3.60;99.90;;;;;;5074983;28;20131;-63
2022/12/13 09:18:23;;;;;;;46.38;22.02;;;-3.60;99.90;;;;;;5073426;28;20044;-62
2022/12/13 09:20:49;;;;;;;47.67;21.10;;;-3.50;99.90;;;;;;5055516;28;20052;-61
2022/12/13 09:23:15;;;;;;;59.28;27.70;;;-3.50;99.90;;;;;;5074572;28;20048;-62
2022/12/13 09:25:42;;;;;;;40.58;21.17;;;-3.50;99.90;;;;;;5073934;28;20067;-62
2022/12/13 09:28:08;;;;;;;50.05;31.23;;;-3.40;99.90;;;;;;5074266;28;20464;-63
2022/12/13 09:30:36;;;;;;;51.10;29.55;;;-3.40;99.90;;;;;;5073608;28;20032;-64
2022/12/13 09:33:01;;;;;;;43.78;21.63;;;-3.20;99.90;;;;;;5073820;28;20055;-63
2022/12/13 09:35:27;;;;;;;43.50;20.45;;;-3.10;99.90;;;;;;5073865;28;20062;-62
2022/12/13 09:37:54;;;;;;;44.33;21.85;;;-3.10;99.90;;;;;;5073691;28;20068;-63
2022/12/13 09:40:24;;;;;;;36.70;18.92;;;-3.00;99.90;;;;;;5039306;28;20098;-63
2022/12/13 09:42:52;;;;;;;37.60;20.33;;;-2.90;99.90;;;;;;5073532;28;20444;-62
2022/12/13 09:45:18;;;;;;;42.28;21.45;;;-2.90;99.90;;;;;;5073870;28;20070;-63
2022/12/13 09:47:46;;;;;;;37.20;19.70;;;-2.80;99.90;;;;;;5072394;28;20036;-62
2022/12/13 09:50:25;;;;;;;34.97;17.85;;;-2.70;99.90;;;;;;5073530;28;20037;-63
2022/12/13 09:52:51;;;;;;;37.95;18.20;;;-2.60;99.90;;;;;;5073149;28;20451;-63
2022/12/13 09:55:17;;;;;;;47.30;25.85;;;-2.60;99.90;;;;;;5056363;28;20037;-63
2022/12/13 09:57:42;;;;;;;39.50;19.83;;;-2.50;99.90;;;;;;5073219;28;20356;-62
2022/12/13 10:00:15;;;;;;;40.08;21.48;;;-2.40;99.90;;;;;;5073280;28;20044;-64
2022/12/13 10:02:58;;;;;;;41.10;19.67;;;-2.40;99.90;;;;;;5074238;28;20055;-64
2022/12/13 10:05:31;;;;;;;39.00;19.35;;;-2.40;99.90;;;;;;5073775;28;20117;-63
2022/12/13 10:07:59;;;;;;;38.95;20.15;;;-2.30;99.90;;;;;;5073644;28;20048;-62
2022/12/13 10:10:25;;;;;;;45.03;21.50;;;-2.20;99.90;;;;;;5073602;28;20028;-63
2022/12/13 10:13:09;;;;;;;38.53;19.88;;;-2.20;99.90;;;;;;5073869;28;20040;-62
2022/12/13 10:15:40;;;;;;;45.13;20.08;;;-2.10;99.90;;;;;;5056069;28;20192;-63
2022/12/13 10:18:08;;;;;;;44.85;21.35;;;-1.90;99.90;;;;;;5074181;28;20040;-64
2022/12/13 10:20:34;;;;;;;44.58;22.23;;;-1.90;99.90;;;;;;5073493;28;20040;-64
2022/12/13 10:22:59;;;;;;;39.72;20.10;;;-1.70;99.90;;;;;;5074387;28;20055;-62
2022/12/13 10:25:48;;;;;;;38.13;20.88;;;-1.70;99.90;;;;;;5073772;28;20094;-63
2022/12/13 10:28:16;;;;;;;38.40;20.05;;;-1.60;99.90;;;;;;5073891;28;20113;-63
2022/12/13 10:30:43;;;;;;;39.78;20.85;;;-1.60;99.90;;;;;;5072968;28;20139;-63
2022/12/13 10:33:24;;;;;;;36.17;18.65;;;-1.50;99.90;;;;;;5055510;28;20045;-63
2022/12/13 10:36:05;;;;;;;41.10;20.13;;;-1.40;99.90;;;;;;5072562;28;20036;-63
2022/12/13 10:38:36;;;;;;;39.05;19.83;;;-1.40;99.90;;;;;;5073939;28;20129;-64
2022/12/13 10:41:02;;;;;;;37.33;19.52;;;-1.20;99.90;;;;;;5073059;28;20036;-62
2022/12/13 10:43:29;;;;;;;30.48;17.10;;;-1.10;99.90;;;;;;5072924;28;20119;-62
2022/12/13 10:45:57;;;;;;;37.78;19.67;;;-1.20;99.90;;;;;;5039399;28;20101;-64
2022/12/13 10:48:29;;;;;;;36.85;19.15;;;-1.10;99.90;;;;;;5055207;28;20369;-63
2022/12/13 10:51:10;;;;;;;35.53;19.23;;;-1.00;99.90;;;;;;5054093;28;20049;-63
2022/12/13 10:53:46;;;;;;;50.33;28.20;;;-1.00;99.90;;;;;;5055168;28;20041;-62
2022/12/13 10:56:12;;;;;;;34.20;19.15;;;-0.90;99.90;;;;;;5055335;28;20059;-63
2022/12/13 10:58:45;;;;;;;39.80;20.25;;;-0.90;99.90;;;;;;5072526;28;20124;-65
2022/12/13 11:01:22;;;;;;;33.45;18.90;;;-0.80;99.90;;;;;;5072321;28;20068;-63
2022/12/13 11:04:23;;;;;;;38.42;20.35;;;-0.80;99.90;;;;;;5071832;28;20114;-64
2022/12/13 11:06:48;;;;;;;31.95;18.52;;;-0.70;99.90;;;;;;5072887;28;20052;-62
2022/12/13 11:09:15;;;;;;;38.10;22.30;;;-0.60;99.90;;;;;;5071849;28;20055;-62
2022/12/13 11:11:42;;;;;;;40.08;20.77;;;-0.60;99.90;;;;;;5072133;28;20051;-62
2022/12/13 11:14:16;;;;;;;42.25;21.58;;;-0.60;99.90;;;;;;5072114;28;20057;-62
2022/12/13 11:16:48;;;;;;;40.17;20.45;;;-0.50;99.90;;;;;;5072172;28;20032;-64
2022/12/13 11:19:24;;;;;;;39.03;20.15;;;-0.40;99.90;;;;;;5071773;28;20064;-63
2022/12/13 11:21:51;;;;;;;39.85;21.13;;;-0.40;99.90;;;;;;5071986;28;20041;-62
2022/12/13 11:24:27;;;;;;;38.35;21.45;;;-0.40;99.90;;;;;;5072130;28;20455;-62
2022/12/13 11:26:58;;;;;;;38.33;20.30;;;-0.30;99.90;;;;;;5071748;28;20060;-65
2022/12/13 11:29:43;;;;;;;35.85;20.85;;;-0.40;99.90;;;;;;5071466;28;20041;-64
2022/12/13 11:32:24;;;;;;;38.35;20.27;;;-0.30;99.90;;;;;;5071521;28;20052;-67
2022/12/13 11:35:17;;;;;;;35.03;19.10;;;-0.30;99.90;;;;;;5071941;28;20043;-63
2022/12/13 11:37:52;;;;;;;37.08;19.88;;;-0.30;99.90;;;;;;5071728;28;20033;-61
2022/12/13 11:40:26;;;;;;;40.67;20.77;;;-0.30;99.90;;;;;;5071385;28;20113;-62
2022/12/13 11:43:24;;;;;;;34.83;19.90;;;-0.20;99.90;;;;;;5070712;28;20119;-61
2022/12/13 11:45:55;;;;;;;37.30;19.73;;;-0.20;99.90;;;;;;5071952;28;20048;-64
2022/12/13 11:48:35;;;;;;;39.55;20.30;;;-0.20;99.90;;;;;;5072547;28;20044;-62
2022/12/13 11:51:05;;;;;;;41.22;19.48;;;-0.20;99.90;;;;;;5070351;28;20037;-63
2022/12/13 11:53:45;;;;;;;36.88;19.63;;;-0.20;99.90;;;;;;5072637;28;20036;-63
2022/12/13 11:56:16;;;;;;;35.35;19.38;;;-0.20;99.90;;;;;;5071454;28;20321;-64
2022/12/13 11:58:45;;;;;;;35.92;20.65;;;-0.20;99.90;;;;;;5071976;28;20429;-62
2022/12/13 12:01:29;;;;;;;36.85;19.95;;;-0.20;99.90;;;;;;5071240;28;20052;-63
2022/12/13 12:04:09;;;;;;;31.95;18.27;;;-0.10;99.90;;;;;;5053564;28;20086;-64
2022/12/13 12:06:47;;;;;;;33.33;18.40;;;-0.10;99.90;;;;;;5071975;28;20052;-64
2022/12/13 12:09:16;;;;;;;30.20;17.33;;;-0.10;99.90;;;;;;5071552;28;20135;-61
2022/12/13 12:11:52;;;;;;;31.15;17.60;;;-0.10;99.90;;;;;;5071400;28;20044;-63
2022/12/13 12:14:45;;;;;;;32.15;17.00;;;-0.10;99.90;;;;;;5071511;28;20045;-61
2022/12/13 12:17:12;;;;;;;31.25;16.55;;;-0.10;99.90;;;;;;5071480;28;20045;-64
2022/12/13 12:19:42;;;;;;;31.02;17.02;;;-0.10;99.90;;;;;;5071523;28;20040;-62
2022/12/13 12:22:29;;;;;;;38.05;19.02;;;-0.10;99.90;;;;;;5071006;28;20036;-63
2022/12/13 12:24:58;;;;;;;36.08;19.08;;;-0.10;99.90;;;;;;5071654;28;20094;-62
2022/12/13 12:27:50;;;;;;;33.53;18.65;;;-0.10;99.90;;;;;;5070817;28;20056;-62
2022/12/13 12:30:21;;;;;;;36.05;19.33;;;-0.10;99.90;;;;;;5071581;28;20052;-64
2022/12/13 12:32:50;;;;;;;34.35;19.13;;;-0.20;99.90;;;;;;5071028;28;20045;-63
2022/12/13 12:35:44;;;;;;;35.38;19.65;;;-0.10;99.90;;;;;;5053914;28;20055;-62
2022/12/13 12:38:26;;;;;;;31.23;17.35;;;-0.20;99.90;;;;;;5059314;28;20164;-62
2022/12/13 12:41:03;;;;;;;36.40;19.08;;;-0.20;99.90;;;;;;5070616;28;20463;-64
2022/12/13 12:43:39;;;;;;;36.55;19.23;;;-0.20;99.90;;;;;;5071644;28;20041;-62
2022/12/13 12:46:13;;;;;;;33.33;18.42;;;-0.20;99.90;;;;;;5071343;28;20465;-61